Time;durP1;ratioP1;P1;durP2;ratioP2;P2;SDS_P1;SDS_P2;PMS_P1;PMS_P2;Temp;Humidity;BMP_temperature;BMP_pressure;BME280_temperature;BME280_humidity;BME280_pressure;Samples;Min_cycle;Max_cycle;Signal;HPM_P1;HPM_P2
2022/06/08 00:02:26;;;;;;;14.00;8.38;;;10.50;99.90;;;;;;5036492;28;20472;-46
2022/06/08 00:04:52;;;;;;;14.25;7.70;;;9.10;99.90;;;;;;5086868;28;20619;-47
2022/06/08 00:07:17;;;;;;;13.07;8.65;;;10.90;99.90;;;;;;5052955;28;20036;-47
2022/06/08 00:09:43;;;;;;;16.60;8.82;;;9.80;99.90;;;;;;5054078;28;20068;-44
2022/06/08 00:12:09;;;;;;;13.75;9.35;;;10.50;99.90;;;;;;5052328;28;20102;-44
2022/06/08 00:14:36;;;;;;;13.95;8.68;;;9.00;99.90;;;;;;5048523;28;21967;-48
2022/06/08 00:17:01;;;;;;;13.75;7.25;;;9.00;99.90;;;;;;5053905;28;20055;-48
2022/06/08 00:19:28;;;;;;;11.85;7.50;;;9.10;99.90;;;;;;5051335;28;20037;-46
2022/06/08 00:21:54;;;;;;;13.75;7.88;;;9.20;99.90;;;;;;5054882;28;20841;-47
2022/06/08 00:24:19;;;;;;;12.00;7.38;;;10.30;99.90;;;;;;5054917;28;20033;-45
2022/06/08 00:26:46;;;;;;;12.07;7.00;;;9.00;99.90;;;;;;5053477;28;20029;-48
2022/06/08 00:29:11;;;;;;;15.10;7.95;;;9.00;99.90;;;;;;5053031;28;20048;-48
2022/06/08 00:31:37;;;;;;;10.20;7.30;;;8.90;99.90;;;;;;5085029;28;20585;-45
2022/06/08 00:34:05;;;;;;;15.43;8.48;;;11.00;99.90;;;;;;5053132;28;20051;-44
2022/06/08 00:36:30;;;;;;;15.45;8.35;;;10.30;99.90;;;;;;5051829;28;20199;-49
2022/06/08 00:38:56;;;;;;;15.75;7.70;;;10.70;99.90;;;;;;5051661;28;20045;-47
2022/06/08 00:41:46;;;;;;;9.95;6.88;;;9.00;99.90;;;;;;5052330;28;20028;-48
2022/06/08 00:44:25;;;;;;;13.77;8.98;;;8.90;99.90;;;;;;5035208;28;20052;-47
2022/06/08 00:46:53;;;;;;;14.20;8.43;;;8.80;99.90;;;;;;5051847;28;20051;-47
2022/06/08 00:49:25;;;;;;;11.63;7.30;;;9.90;99.90;;;;;;5051764;28;20125;-45
2022/06/08 00:51:51;;;;;;;9.75;6.97;;;10.90;99.90;;;;;;5051732;28;20048;-43
2022/06/08 00:54:27;;;;;;;12.25;7.97;;;8.70;99.90;;;;;;5051942;28;20519;-42
2022/06/08 00:56:58;;;;;;;9.90;7.07;;;9.00;99.90;;;;;;5052539;28;20066;-46
2022/06/08 00:59:24;;;;;;;14.00;7.47;;;8.90;99.90;;;;;;5051572;28;20123;-43
2022/06/08 01:01:50;;;;;;;17.73;8.20;;;8.70;99.90;;;;;;5051257;28;20036;-44
2022/06/08 01:04:18;;;;;;;12.15;6.45;;;8.80;99.90;;;;;;5049465;28;20040;-45
2022/06/08 01:06:51;;;;;;;8.80;6.07;;;8.80;99.90;;;;;;5052805;28;20110;-48
2022/06/08 01:09:26;;;;;;;9.18;5.65;;;8.70;99.90;;;;;;5050651;28;20083;-44
2022/06/08 01:11:51;;;;;;;10.82;7.05;;;8.80;99.90;;;;;;5034282;28;20048;-48
2022/06/08 01:14:19;;;;;;;10.93;6.93;;;8.60;99.90;;;;;;5051680;28;20208;-46
2022/06/08 01:16:53;;;;;;;13.48;8.07;;;8.70;99.90;;;;;;5050942;28;20071;-46
2022/06/08 01:19:19;;;;;;;16.38;7.85;;;10.60;99.90;;;;;;5052383;28;20382;-46
2022/06/08 01:21:50;;;;;;;13.00;8.02;;;9.30;99.90;;;;;;5035035;28;20055;-46
2022/06/08 01:24:17;;;;;;;12.13;7.70;;;8.70;99.90;;;;;;5052869;28;20409;-44
2022/06/08 01:27:19;;;;;;;17.63;8.18;;;8.50;99.90;;;;;;5050489;28;20055;-44
2022/06/08 01:29:58;;;;;;;15.55;7.28;;;8.80;99.90;;;;;;5032074;28;20429;-45
2022/06/08 01:33:02;;;;;;;10.93;7.57;;;10.20;99.90;;;;;;5049411;28;20068;-42
2022/06/08 01:35:48;;;;;;;15.77;7.82;;;8.90;99.90;;;;;;5012740;28;20425;-44
2022/06/08 01:38:38;;;;;;;17.10;8.73;;;8.70;99.90;;;;;;5033375;28;20063;-46
2022/06/08 01:41:15;;;;;;;13.30;8.02;;;9.70;99.90;;;;;;5033420;28;20151;-42
2022/06/08 01:44:07;;;;;;;15.10;7.88;;;8.90;99.90;;;;;;5033568;28;20044;-46
2022/06/08 01:46:57;;;;;;;15.75;8.25;;;8.80;99.90;;;;;;5049718;28;20449;-47
2022/06/08 01:49:35;;;;;;;18.75;8.70;;;8.90;99.90;;;;;;5031933;28;20563;-46
2022/06/08 01:52:30;;;;;;;16.48;8.73;;;9.30;99.90;;;;;;5015459;28;20060;-45
2022/06/08 01:55:11;;;;;;;14.55;8.00;;;8.80;99.90;;;;;;4989662;28;20060;-43
2022/06/08 01:58:11;;;;;;;13.63;7.82;;;8.80;99.90;;;;;;4958078;28;20235;-43
2022/06/08 02:00:47;;;;;;;16.13;8.07;;;8.90;99.90;;;;;;5007622;28;20535;-44
2022/06/08 02:03:42;;;;;;;12.35;7.93;;;8.60;99.90;;;;;;4973957;28;20605;-46
2022/06/08 02:06:19;;;;;;;14.73;7.53;;;9.80;99.90;;;;;;4968610;28;20060;-47
2022/06/08 02:08:48;;;;;;;14.95;8.52;;;9.00;99.90;;;;;;4954907;28;20046;-47
2022/06/08 02:11:39;;;;;;;13.80;7.90;;;8.80;99.90;;;;;;4971102;28;20125;-45
2022/06/08 02:14:36;;;;;;;14.23;9.20;;;8.90;99.90;;;;;;4954011;28;20563;-46
2022/06/08 02:17:19;;;;;;;18.73;9.90;;;10.30;99.90;;;;;;4952927;28;20089;-42
2022/06/08 02:19:50;;;;;;;14.43;10.32;;;8.90;99.90;;;;;;4953898;28;20141;-42
2022/06/08 02:22:18;;;;;;;15.50;8.63;;;9.40;99.90;;;;;;4986678;28;20864;-45
2022/06/08 02:24:49;;;;;;;14.55;9.23;;;9.10;99.90;;;;;;4951933;28;20665;-44
2022/06/08 02:27:25;;;;;;;21.75;9.48;;;11.20;99.90;;;;;;4985521;28;20046;-46
2022/06/08 02:30:03;;;;;;;15.20;9.32;;;9.10;99.90;;;;;;4954437;28;20050;-46
2022/06/08 02:35:34;;;;;;;18.17;9.38;;;9.00;99.90;;;;;;5049947;28;20139;-46
2022/06/08 02:38:08;;;;;;;17.65;9.65;;;9.10;99.90;;;;;;5067769;28;20098;-47
2022/06/08 02:40:40;;;;;;;16.85;10.15;;;9.00;99.90;;;;;;5023667;28;20028;-43
2022/06/08 02:43:11;;;;;;;16.30;10.18;;;10.90;99.90;;;;;;5026710;28;20069;-44
2022/06/08 02:45:41;;;;;;;22.63;10.70;;;8.90;99.90;;;;;;5054406;28;20048;-44
2022/06/08 02:48:10;;;;;;;19.98;11.18;;;8.90;99.90;;;;;;5066831;28;20301;-46
2022/06/08 02:50:39;;;;;;;19.55;10.77;;;9.00;99.90;;;;;;5086470;28;20044;-43
2022/06/08 02:53:41;;;;;;;18.92;10.35;;;10.00;99.90;;;;;;5053616;28;20444;-46
2022/06/08 02:56:39;;;;;;;23.90;12.85;;;10.40;99.90;;;;;;5016239;28;20579;-44
2022/06/08 02:59:07;;;;;;;23.80;12.15;;;9.10;99.90;;;;;;5016419;28;20417;-45
2022/06/08 03:01:40;;;;;;;23.05;12.07;;;10.50;99.90;;;;;;5015166;28;20041;-47
2022/06/08 03:04:28;;;;;;;22.20;12.35;;;10.40;99.90;;;;;;5049048;28;20045;-47
2022/06/08 03:06:58;;;;;;;21.40;12.02;;;9.00;99.90;;;;;;5049186;28;20068;-46
2022/06/08 03:09:25;;;;;;;17.27;12.40;;;9.00;99.90;;;;;;5017282;28;20775;-47
2022/06/08 03:11:56;;;;;;;19.50;12.23;;;9.20;99.90;;;;;;5016109;28;20044;-48
2022/06/08 03:14:24;;;;;;;21.65;12.90;;;9.70;99.90;;;;;;4999964;28;20041;-45
2022/06/08 03:17:02;;;;;;;21.67;13.65;;;9.30;99.90;;;;;;5015685;28;20045;-47
2022/06/08 03:19:32;;;;;;;24.17;14.38;;;9.10;99.90;;;;;;5016289;28;20093;-47
2022/06/08 03:21:58;;;;;;;20.60;13.68;;;10.80;99.90;;;;;;5016300;28;20048;-50
2022/06/08 03:24:25;;;;;;;27.92;15.52;;;10.50;99.90;;;;;;5015510;28;20132;-47
2022/06/08 03:27:11;;;;;;;24.40;14.93;;;9.40;99.90;;;;;;4999160;28;20040;-47
2022/06/08 03:29:37;;;;;;;26.65;14.82;;;9.20;99.90;;;;;;5014823;28;20135;-46
2022/06/08 03:32:03;;;;;;;27.13;15.43;;;9.80;99.90;;;;;;5038772;28;20045;-44
2022/06/08 03:34:29;;;;;;;26.67;16.05;;;9.40;99.90;;;;;;5053385;28;20044;-47
2022/06/08 03:36:55;;;;;;;25.45;16.27;;;9.20;99.90;;;;;;5054625;28;20646;-48
2022/06/08 03:39:23;;;;;;;24.33;16.05;;;11.30;99.90;;;;;;5053074;28;20044;-46
2022/06/08 03:41:50;;;;;;;29.35;16.20;;;9.70;99.90;;;;;;5052935;28;20055;-46
2022/06/08 03:44:16;;;;;;;28.55;16.70;;;9.50;99.90;;;;;;5053337;28;21065;-43
2022/06/08 03:46:49;;;;;;;25.58;16.67;;;9.50;99.90;;;;;;5052803;28;20040;-45
2022/06/08 03:49:15;;;;;;;29.45;16.52;;;9.70;99.90;;;;;;5051730;28;20105;-47
2022/06/08 03:51:42;;;;;;;29.65;17.42;;;9.60;99.90;;;;;;5050808;28;20041;-45
2022/06/08 03:54:16;;;;;;;23.88;16.40;;;10.30;99.90;;;;;;5052006;28;20048;-50
2022/06/08 03:56:46;;;;;;;24.80;16.35;;;9.80;99.90;;;;;;5051455;28;20122;-49
2022/06/08 03:59:13;;;;;;;23.92;16.85;;;9.60;99.90;;;;;;5053359;28;22099;-47
2022/06/08 04:01:40;;;;;;;22.83;16.15;;;9.80;99.90;;;;;;5053004;28;20063;-49
2022/06/08 04:04:06;;;;;;;28.92;16.85;;;9.90;99.90;;;;;;5052913;28;20114;-50
2022/06/08 04:06:34;;;;;;;27.25;17.73;;;10.10;99.90;;;;;;5052031;28;20126;-45
2022/06/08 04:09:00;;;;;;;25.23;16.75;;;11.20;99.90;;;;;;5085882;28;20075;-51
2022/06/08 04:11:26;;;;;;;29.92;17.83;;;12.10;99.90;;;;;;5053191;28;20185;-49
2022/06/08 04:13:51;;;;;;;26.10;17.35;;;10.90;99.90;;;;;;5052744;28;20068;-46
2022/06/08 04:16:17;;;;;;;27.35;17.90;;;10.30;99.90;;;;;;5052513;28;20093;-47
2022/06/08 04:18:43;;;;;;;24.98;16.13;;;10.40;99.90;;;;;;5053617;28;20142;-47
2022/06/08 04:21:12;;;;;;;29.02;17.67;;;10.50;99.90;;;;;;5036603;28;20139;-46
2022/06/08 04:23:41;;;;;;;27.10;16.55;;;10.60;99.90;;;;;;5035499;28;20037;-46
2022/06/08 04:26:07;;;;;;;25.67;16.52;;;11.30;99.90;;;;;;5085672;28;20052;-51
2022/06/08 04:28:36;;;;;;;25.05;15.93;;;11.00;99.90;;;;;;5086362;28;20032;-47
2022/06/08 04:31:02;;;;;;;21.88;16.38;;;12.20;99.90;;;;;;5030009;28;20492;-48
2022/06/08 04:33:28;;;;;;;25.98;17.90;;;11.30;99.90;;;;;;5035670;28;20822;-48
2022/06/08 04:35:58;;;;;;;25.48;18.40;;;12.90;99.90;;;;;;5053113;28;20040;-46
2022/06/08 04:38:24;;;;;;;24.98;17.50;;;13.30;99.90;;;;;;5052828;28;20060;-49
2022/06/08 04:40:50;;;;;;;23.83;17.73;;;11.50;99.90;;;;;;5052482;28;20047;-49
2022/06/08 04:43:18;;;;;;;26.40;19.10;;;11.80;99.90;;;;;;5052962;28;20056;-48
2022/06/08 04:45:44;;;;;;;26.83;17.80;;;11.70;99.90;;;;;;5086926;28;20045;-48
2022/06/08 04:48:11;;;;;;;26.27;19.08;;;11.80;99.90;;;;;;5052800;28;20032;-47
2022/06/08 04:50:37;;;;;;;26.85;18.50;;;13.30;99.90;;;;;;5084780;28;20151;-48
2022/06/08 04:53:03;;;;;;;25.42;17.88;;;12.40;99.90;;;;;;5033038;28;20516;-49
2022/06/08 04:55:29;;;;;;;22.92;17.35;;;12.10;99.90;;;;;;5050928;28;20044;-46
2022/06/08 04:57:55;;;;;;;25.65;18.25;;;13.10;99.90;;;;;;5036229;28;20058;-50
2022/06/08 05:00:22;;;;;;;30.35;19.33;;;11.90;99.90;;;;;;5035603;28;20079;-47
2022/06/08 05:02:50;;;;;;;25.42;19.13;;;11.90;99.90;;;;;;5050270;28;20037;-45
2022/06/08 05:05:22;;;;;;;32.33;19.95;;;12.80;99.90;;;;;;5084721;28;20048;-48
2022/06/08 05:07:47;;;;;;;;;;;12.50;99.90;;;;;;5085513;28;20557;-49
2022/06/08 05:10:13;;;;;;;31.50;20.25;;;12.10;99.90;;;;;;5085920;28;19928;-50
2022/06/08 05:12:40;;;;;;;26.42;19.15;;;12.10;99.90;;;;;;5048169;28;20052;-50
2022/06/08 05:15:10;;;;;;;26.08;19.67;;;12.10;99.90;;;;;;5049807;28;20052;-50
2022/06/08 05:17:35;;;;;;;27.30;20.70;;;12.30;99.90;;;;;;5033757;28;20140;-47
2022/06/08 05:20:04;;;;;;;30.20;19.63;;;13.10;99.90;;;;;;5051738;28;20048;-47
2022/06/08 05:22:30;;;;;;;30.92;20.90;;;12.40;99.90;;;;;;5084837;28;20052;-50
2022/06/08 05:24:56;;;;;;;34.45;21.80;;;12.70;99.90;;;;;;5050784;28;20072;-52
2022/06/08 05:27:23;;;;;;;37.25;21.77;;;12.20;99.90;;;;;;5050869;28;20572;-49
2022/06/08 05:29:49;;;;;;;30.63;20.88;;;12.50;99.90;;;;;;5050819;28;20520;-47
2022/06/08 05:32:15;;;;;;;27.90;20.30;;;13.30;99.90;;;;;;5083885;28;20123;-45
2022/06/08 05:34:41;;;;;;;28.42;21.33;;;14.20;99.90;;;;;;5050445;28;20056;-49
2022/06/08 05:37:07;;;;;;;31.75;22.17;;;14.80;99.90;;;;;;5049957;28;20505;-50
2022/06/08 05:39:33;;;;;;;27.88;20.92;;;12.70;99.90;;;;;;5051955;28;20048;-46
2022/06/08 05:42:00;;;;;;;30.58;21.15;;;14.40;99.90;;;;;;5033638;28;20055;-49
2022/06/08 05:44:26;;;;;;;26.70;20.67;;;13.10;99.90;;;;;;5062136;28;20072;-47
2022/06/08 05:46:53;;;;;;;27.80;20.63;;;12.80;99.90;;;;;;5049725;28;20155;-49
2022/06/08 05:49:19;;;;;;;29.88;20.65;;;12.80;99.90;;;;;;5033561;28;20101;-45
2022/06/08 05:51:45;;;;;;;31.92;21.38;;;13.10;99.90;;;;;;5086000;28;20060;-48
2022/06/08 05:54:11;;;;;;;29.88;21.63;;;15.70;99.90;;;;;;5049775;28;20336;-51
2022/06/08 05:56:37;;;;;;;35.03;21.92;;;14.30;99.90;;;;;;5084692;28;20504;-50
2022/06/08 05:59:04;;;;;;;25.95;19.40;;;13.60;99.90;;;;;;5085221;28;20477;-51
2022/06/08 06:01:33;;;;;;;30.15;21.05;;;15.30;99.90;;;;;;5031901;28;20074;-49
2022/06/08 06:04:03;;;;;;;24.77;19.35;;;13.70;99.90;;;;;;5084849;28;20123;-51
2022/06/08 06:06:29;;;;;;;27.02;20.15;;;15.90;99.90;;;;;;5083573;28;20094;-49
2022/06/08 06:08:55;;;;;;;25.33;18.70;;;16.30;99.90;;;;;;5048769;28;20056;-49
2022/06/08 06:11:21;;;;;;;20.45;17.13;;;15.00;99.90;;;;;;5084005;28;20405;-52
2022/06/08 06:13:47;;;;;;;24.75;17.92;;;14.40;99.90;;;;;;5064327;28;20037;-52
2022/06/08 06:16:13;;;;;;;21.50;16.83;;;14.50;99.90;;;;;;5049146;28;20312;-51
2022/06/08 06:18:40;;;;;;;17.23;15.18;;;14.90;99.90;;;;;;5050033;28;20820;-48
2022/06/08 06:21:06;;;;;;;16.85;14.35;;;15.60;99.90;;;;;;5051018;28;20409;-51
2022/06/08 06:23:33;;;;;;;20.83;15.35;;;15.50;99.90;;;;;;5049597;28;20037;-52
2022/06/08 06:25:59;;;;;;;17.83;14.40;;;16.80;99.90;;;;;;5051148;28;20057;-48
2022/06/08 06:28:24;;;;;;;22.33;15.02;;;15.60;99.90;;;;;;5049199;28;20660;-46
2022/06/08 06:30:50;;;;;;;19.33;14.73;;;15.30;99.90;;;;;;5050943;28;20154;-47
2022/06/08 06:33:16;;;;;;;20.15;14.57;;;17.20;99.90;;;;;;5048629;28;20094;-47
2022/06/08 06:35:42;;;;;;;19.42;14.80;;;15.70;99.90;;;;;;5084133;28;20042;-47
2022/06/08 06:38:09;;;;;;;21.77;14.75;;;17.20;99.90;;;;;;5050518;28;20455;-50
2022/06/08 06:40:36;;;;;;;20.02;14.80;;;18.00;99.90;;;;;;5050221;28;20071;-49
2022/06/08 06:43:03;;;;;;;20.10;13.13;;;16.90;99.90;;;;;;5062803;28;20064;-50
2022/06/08 06:45:29;;;;;;;18.30;14.05;;;16.00;99.90;;;;;;5082156;28;20459;-49
2022/06/08 06:47:57;;;;;;;18.60;13.35;;;18.20;99.90;;;;;;5051919;28;20055;-48
2022/06/08 06:50:25;;;;;;;20.42;13.50;;;16.00;99.90;;;;;;5067096;28;20048;-46
2022/06/08 06:52:51;;;;;;;16.50;12.55;;;16.50;99.90;;;;;;5048679;28;20119;-48
2022/06/08 06:55:25;;;;;;;17.52;11.93;;;16.80;99.90;;;;;;5065764;28;20041;-51
2022/06/08 06:57:54;;;;;;;20.58;11.90;;;17.10;99.90;;;;;;5083933;28;20088;-47
2022/06/08 07:00:20;;;;;;;16.80;11.85;;;17.60;99.90;;;;;;5032111;28;20136;-50
2022/06/08 07:02:46;;;;;;;16.52;11.45;;;17.10;99.90;;;;;;5051473;28;20044;-49
2022/06/08 07:05:18;;;;;;;15.35;11.77;;;19.10;99.90;;;;;;5034996;28;20052;-49
2022/06/08 07:07:44;;;;;;;15.27;11.80;;;18.70;99.90;;;;;;5084858;28;20513;-51
2022/06/08 07:10:10;;;;;;;16.88;11.48;;;16.60;99.90;;;;;;5051912;28;20671;-51
2022/06/08 07:12:35;;;;;;;12.88;10.50;;;16.50;99.90;;;;;;5084639;28;20098;-48
2022/06/08 07:15:01;;;;;;;13.15;10.30;;;17.60;99.90;;;;;;5034077;28;20044;-48
2022/06/08 07:17:27;;;;;;;14.10;9.73;;;16.40;99.90;;;;;;5051103;28;20513;-46
2022/06/08 07:19:54;;;;;;;15.15;10.07;;;16.80;99.90;;;;;;5084572;28;20599;-47
2022/06/08 07:22:20;;;;;;;12.05;8.90;;;16.60;99.90;;;;;;5084362;28;20041;-50
2022/06/08 07:24:46;;;;;;;13.73;9.32;;;17.80;99.90;;;;;;5050618;28;20040;-49
2022/06/08 07:27:11;;;;;;;15.57;9.65;;;16.60;99.90;;;;;;5036536;28;20040;-46
2022/06/08 07:29:38;;;;;;;15.55;9.25;;;17.60;99.90;;;;;;5036416;28;20040;-46
2022/06/08 07:32:04;;;;;;;15.57;9.40;;;16.50;99.90;;;;;;5053328;28;20051;-47
2022/06/08 07:34:31;;;;;;;13.23;8.75;;;16.40;99.90;;;;;;5037270;28;20177;-46
2022/06/08 07:36:57;;;;;;;12.18;9.70;;;16.30;99.90;;;;;;5035211;28;20051;-49
2022/06/08 07:39:24;;;;;;;13.15;9.70;;;17.20;99.90;;;;;;5053210;28;20049;-49
2022/06/08 07:41:49;;;;;;;14.65;8.88;;;16.40;99.90;;;;;;5052806;28;20560;-48
2022/06/08 07:44:17;;;;;;;15.57;10.00;;;18.00;99.90;;;;;;5051801;28;20037;-50
2022/06/08 07:46:44;;;;;;;16.08;9.98;;;18.70;99.90;;;;;;5086371;28;20078;-51
2022/06/08 07:52:01;;;;;;;12.52;9.77;;;16.70;99.90;;;;;;5051634;28;20429;-50
2022/06/08 07:54:28;;;;;;;12.75;9.32;;;18.00;99.90;;;;;;5050810;28;20851;-50
2022/06/08 07:56:54;;;;;;;13.75;10.10;;;17.20;99.90;;;;;;5035821;28;21207;-52
2022/06/08 07:59:24;;;;;;;13.07;9.65;;;17.10;99.90;;;;;;5052782;28;20052;-51
2022/06/08 08:01:53;;;;;;;12.77;9.60;;;17.50;99.90;;;;;;5036642;28;20065;-50
2022/06/08 08:04:19;;;;;;;11.80;8.25;;;17.70;99.90;;;;;;5052580;28;20106;-51
2022/06/08 08:06:45;;;;;;;12.77;6.97;;;18.60;99.90;;;;;;5051140;28;20071;-53
2022/06/08 08:09:17;;;;;;;10.38;7.15;;;20.20;99.90;;;;;;5052638;28;20079;-52
2022/06/08 08:11:44;;;;;;;10.02;6.38;;;19.90;99.90;;;;;;5086324;28;20048;-52
2022/06/08 08:14:10;;;;;;;10.05;6.32;;;20.70;99.90;;;;;;5051567;28;20140;-48
2022/06/08 08:16:37;;;;;;;10.10;6.25;;;20.00;99.90;;;;;;5051953;28;20056;-51
2022/06/08 08:19:03;;;;;;;10.90;7.05;;;19.80;99.90;;;;;;5051674;28;20049;-53
2022/06/08 08:21:29;;;;;;;8.82;5.95;;;19.70;99.90;;;;;;5051944;28;20151;-51
2022/06/08 08:23:57;;;;;;;8.75;5.03;;;19.70;99.90;;;;;;5055166;28;20511;-51
2022/06/08 08:26:22;;;;;;;8.80;4.45;;;20.20;99.90;;;;;;5036287;28;20040;-52
2022/06/08 08:28:48;;;;;;;6.28;3.33;;;20.20;99.90;;;;;;5053398;28;20074;-52
2022/06/08 08:31:14;;;;;;;8.05;3.00;;;20.00;99.90;;;;;;5088271;28;20048;-52
2022/06/08 08:33:39;;;;;;;5.63;2.63;;;19.70;99.90;;;;;;5052629;28;20044;-52
2022/06/08 08:36:05;;;;;;;4.97;2.33;;;19.20;99.90;;;;;;5052380;28;20138;-52
2022/06/08 08:38:35;;;;;;;2.88;1.80;;;19.50;99.90;;;;;;5035880;28;20137;-52
2022/06/08 08:41:01;;;;;;;5.70;2.05;;;21.50;99.90;;;;;;5053150;28;20540;-51
2022/06/08 08:43:34;;;;;;;4.82;1.90;;;19.50;99.90;;;;;;5052992;28;20049;-53
2022/06/08 08:46:35;;;;;;;6.40;2.40;;;19.80;99.90;;;;;;5052580;28;20055;-52
2022/06/08 08:49:12;;;;;;;5.45;2.00;;;20.30;99.90;;;;;;4977848;28;20099;-53
2022/06/08 08:51:43;;;;;;;5.10;1.85;;;22.50;99.90;;;;;;5009775;28;20049;-52
2022/06/08 08:54:26;;;;;;;5.30;1.93;;;20.70;99.90;;;;;;5011945;28;20095;-49
2022/06/08 08:56:59;;;;;;;2.05;1.10;;;20.70;99.90;;;;;;4993480;28;20045;-52
2022/06/08 08:59:30;;;;;;;4.28;1.80;;;20.90;99.90;;;;;;5027457;28;20155;-52
2022/06/08 09:01:57;;;;;;;4.70;1.67;;;20.50;99.90;;;;;;5010135;28;20787;-52
2022/06/08 09:04:40;;;;;;;4.93;2.00;;;20.20;99.90;;;;;;5010615;28;21135;-52
2022/06/08 09:07:15;;;;;;;5.40;2.00;;;22.20;99.90;;;;;;5011420;28;20065;-54
2022/06/08 09:09:41;;;;;;;4.07;1.92;;;20.00;99.90;;;;;;5026585;28;22035;-49
2022/06/08 09:12:19;;;;;;;4.93;1.77;;;19.80;99.90;;;;;;4995001;28;20057;-54
2022/06/08 09:14:52;;;;;;;4.70;1.98;;;19.80;99.90;;;;;;4993884;28;20740;-53
2022/06/08 09:17:56;;;;;;;5.57;2.20;;;19.50;99.90;;;;;;4993229;28;20069;-53
2022/06/08 09:20:30;;;;;;;6.78;2.30;;;19.30;99.90;;;;;;4974081;28;21327;-51
2022/06/08 09:22:58;;;;;;;4.00;1.85;;;19.20;99.90;;;;;;4972655;28;20038;-48
2022/06/08 09:25:29;;;;;;;4.03;2.17;;;21.60;99.90;;;;;;5004332;28;20155;-52
2022/06/08 09:27:57;;;;;;;7.13;2.73;;;19.50;99.90;;;;;;5013434;28;20470;-52
2022/06/08 09:30:29;;;;;;;4.72;2.28;;;19.60;99.90;;;;;;5013512;28;20079;-50
2022/06/08 09:33:13;;;;;;;4.30;2.22;;;19.90;99.90;;;;;;5045992;28;20048;-52
2022/06/08 09:35:52;;;;;;;6.93;2.50;;;19.90;99.90;;;;;;5011402;28;20060;-50
2022/06/08 09:38:22;;;;;;;4.88;1.65;;;19.80;99.90;;;;;;5013693;28;20045;-50
2022/06/08 09:41:13;;;;;;;5.25;1.60;;;19.90;99.90;;;;;;4997081;28;20094;-52
2022/06/08 09:44:01;;;;;;;8.70;2.03;;;20.10;99.90;;;;;;5046384;28;20057;-50
2022/06/08 09:53:01;;;;;;;6.20;1.63;;;20.10;99.90;;;;;;4909494;29;20090;-52
2022/06/08 09:55:36;;;;;;;4.28;1.33;;;20.00;99.90;;;;;;4931463;29;20055;-48
2022/06/08 09:58:13;;;;;;;3.90;1.30;;;19.90;99.90;;;;;;4936077;28;20401;-50
2022/06/08 10:00:54;;;;;;;3.92;1.70;;;19.80;99.90;;;;;;4939198;28;20567;-51
2022/06/08 10:03:50;;;;;;;3.55;1.45;;;19.70;99.90;;;;;;4938331;28;20055;-49
2022/06/08 10:06:26;;;;;;;3.95;1.67;;;19.90;99.90;;;;;;4922360;28;20101;-53
2022/06/08 10:09:15;;;;;;;4.60;1.65;;;20.10;99.90;;;;;;4935030;28;20062;-53
2022/06/08 10:12:01;;;;;;;3.28;1.50;;;20.50;99.90;;;;;;4920554;28;20082;-52
2022/06/08 10:14:49;;;;;;;3.35;1.67;;;21.20;99.90;;;;;;4918168;28;20065;-52
2022/06/08 10:17:18;;;;;;;5.00;2.42;;;21.70;99.90;;;;;;4933354;28;20118;-49
2022/06/08 10:20:01;;;;;;;5.05;2.45;;;21.90;99.90;;;;;;4915598;28;20059;-49
2022/06/08 10:22:38;;;;;;;5.50;2.58;;;21.80;99.90;;;;;;4933546;28;20051;-50
2022/06/08 10:25:07;;;;;;;4.55;2.17;;;22.00;99.90;;;;;;4917607;28;20047;-52
2022/06/08 10:27:54;;;;;;;5.93;2.38;;;21.90;99.90;;;;;;5036871;28;20493;-54
2022/06/08 10:30:32;;;;;;;4.28;2.40;;;22.10;99.90;;;;;;5050386;28;20684;-52
2022/06/08 10:33:10;;;;;;;5.70;2.17;;;22.10;99.90;;;;;;5051279;28;20048;-51
2022/06/08 10:35:43;;;;;;;4.43;2.35;;;22.50;99.90;;;;;;5032883;28;20135;-51
2022/06/08 10:38:32;;;;;;;11.38;2.22;;;22.20;99.90;;;;;;5028877;28;20662;-49
2022/06/08 10:44:34;;;;;;;5.80;2.80;;;22.60;99.90;;;;;;5012444;28;20045;-51
2022/06/08 10:47:33;;;;;;;5.43;2.35;;;21.30;99.90;;;;;;5012940;28;20838;-51
2022/06/08 10:50:43;;;;;;;7.25;2.20;;;21.00;99.90;;;;;;5009965;28;20053;-51
2022/06/08 10:56:29;;;;;;;5.77;2.27;;;20.60;99.90;;;;;;4952309;28;20079;-51
2022/06/08 10:59:03;;;;;;;5.43;2.25;;;20.10;99.90;;;;;;4951677;28;21275;-54
2022/06/08 11:01:50;;;;;;;5.72;2.25;;;20.10;99.90;;;;;;4957209;28;20071;-52
2022/06/08 11:04:30;;;;;;;7.22;3.13;;;19.90;99.90;;;;;;4939511;28;20054;-50
2022/06/08 11:06:58;;;;;;;9.45;3.78;;;19.40;99.90;;;;;;4939739;28;20590;-52
2022/06/08 11:09:32;;;;;;;7.68;3.40;;;19.30;99.90;;;;;;4956414;28;20054;-49
2022/06/08 11:12:04;;;;;;;8.55;3.58;;;18.60;99.90;;;;;;4956460;28;20046;-51
2022/06/08 11:14:52;;;;;;;7.40;4.05;;;18.30;99.90;;;;;;4956241;28;20050;-49
2022/06/08 11:17:32;;;;;;;7.00;4.07;;;18.00;99.90;;;;;;4972424;28;20059;-48
2022/06/08 11:20:14;;;;;;;7.60;4.07;;;20.10;99.90;;;;;;4956211;28;20420;-50
2022/06/08 11:22:50;;;;;;;7.20;4.32;;;17.90;99.90;;;;;;4972511;28;20891;-47
2022/06/08 11:25:31;;;;;;;9.15;4.93;;;19.60;99.90;;;;;;4974662;28;20060;-47
2022/06/08 11:28:35;;;;;;;8.00;5.53;;;17.80;99.90;;;;;;4977161;28;20562;-51
2022/06/08 11:31:11;;;;;;;9.73;5.30;;;18.00;99.90;;;;;;5085619;28;20161;-47
2022/06/08 11:33:56;;;;;;;9.20;5.78;;;19.50;99.90;;;;;;5088629;28;20598;-46
2022/06/08 11:36:59;;;;;;;7.68;5.40;;;17.90;99.90;;;;;;5052283;28;20131;-50
2022/06/08 11:39:44;;;;;;;11.57;6.15;;;17.80;99.90;;;;;;5085224;28;20311;-49
2022/06/08 11:42:32;;;;;;;9.85;6.65;;;17.60;99.90;;;;;;5037022;28;21175;-50
2022/06/08 11:45:05;;;;;;;8.40;6.03;;;17.60;99.90;;;;;;5052319;28;21071;-50
2022/06/08 11:47:55;;;;;;;11.77;6.95;;;17.70;99.90;;;;;;5035526;28;20052;-51
2022/06/08 11:50:31;;;;;;;11.98;7.18;;;17.60;99.90;;;;;;5035151;28;21057;-47
2022/06/08 11:53:01;;;;;;;11.10;6.60;;;17.70;99.90;;;;;;5054505;28;20444;-51
2022/06/08 11:55:27;;;;;;;11.80;6.78;;;17.50;99.90;;;;;;5053249;28;20059;-48
2022/06/08 11:58:05;;;;;;;13.02;7.82;;;17.70;99.90;;;;;;5052156;28;20334;-50
2022/06/08 12:00:55;;;;;;;14.80;7.38;;;17.60;99.90;;;;;;5052706;28;20040;-51
2022/06/08 12:03:38;;;;;;;11.88;6.90;;;17.80;99.90;;;;;;5053694;28;20036;-49
2022/06/08 12:06:15;;;;;;;7.82;5.72;;;17.90;99.90;;;;;;5052436;28;20822;-52
2022/06/08 12:09:05;;;;;;;10.23;7.03;;;18.20;99.90;;;;;;5052715;28;20487;-49
2022/06/08 12:11:33;;;;;;;11.75;7.20;;;18.50;99.90;;;;;;5032199;28;20138;-53
2022/06/08 12:14:17;;;;;;;8.25;5.97;;;18.80;99.90;;;;;;5033307;28;20360;-52
2022/06/08 12:17:04;;;;;;;9.07;5.60;;;19.30;99.90;;;;;;5034331;28;20048;-49
2022/06/08 12:19:48;;;;;;;11.13;5.65;;;19.40;99.90;;;;;;5050734;28;20620;-50
2022/06/08 12:22:29;;;;;;;10.23;5.88;;;19.70;99.90;;;;;;5033380;28;20056;-48
2022/06/08 12:25:17;;;;;;;10.20;5.97;;;20.00;99.90;;;;;;5016329;28;20661;-48
2022/06/08 12:27:51;;;;;;;8.43;5.85;;;20.30;99.90;;;;;;5033319;28;20144;-51
2022/06/08 12:30:36;;;;;;;9.63;5.93;;;20.30;99.90;;;;;;5052886;28;20799;-52
2022/06/08 12:33:21;;;;;;;10.63;6.05;;;20.30;99.90;;;;;;5051981;28;20059;-48
2022/06/08 12:35:56;;;;;;;8.55;4.35;;;20.00;99.90;;;;;;5032452;28;20539;-48
2022/06/08 12:38:34;;;;;;;11.82;4.32;;;21.50;99.90;;;;;;5017094;28;20052;-49
2022/06/08 12:41:15;;;;;;;9.60;4.20;;;19.70;99.90;;;;;;5051245;28;20063;-49
2022/06/08 12:43:51;;;;;;;10.50;3.70;;;19.40;99.90;;;;;;5050006;28;20045;-49
2022/06/08 12:46:28;;;;;;;7.40;3.65;;;19.40;99.90;;;;;;5016801;28;20041;-50
2022/06/08 12:48:54;;;;;;;9.02;4.18;;;19.30;99.90;;;;;;5036435;28;20654;-51
2022/06/08 12:51:35;;;;;;;9.75;3.47;;;20.30;99.90;;;;;;5034244;28;20186;-50
2022/06/08 12:54:09;;;;;;;9.63;3.97;;;19.10;99.90;;;;;;5035847;28;20110;-48
2022/06/08 12:56:35;;;;;;;11.48;4.10;;;19.10;99.90;;;;;;5052057;28;20555;-50
2022/06/08 12:59:00;;;;;;;11.25;4.20;;;19.10;99.90;;;;;;5051295;28;20044;-50
2022/06/08 13:01:29;;;;;;;9.10;4.93;;;19.30;99.90;;;;;;5050748;28;20049;-50
2022/06/08 13:03:56;;;;;;;9.18;4.38;;;19.30;99.90;;;;;;5035490;28;20069;-50
2022/06/08 13:06:24;;;;;;;10.05;4.55;;;20.80;99.90;;;;;;5029794;28;21185;-51
2022/06/08 13:08:50;;;;;;;11.80;5.00;;;19.20;99.90;;;;;;5034718;28;20033;-50
2022/06/08 13:11:23;;;;;;;6.30;4.20;;;19.00;99.90;;;;;;5050274;28;20052;-48
2022/06/08 13:13:51;;;;;;;8.82;3.50;;;18.90;99.90;;;;;;5032977;28;20706;-46
2022/06/08 13:16:27;;;;;;;6.65;4.38;;;18.90;99.90;;;;;;5034383;28;20052;-51
2022/06/08 13:18:54;;;;;;;8.80;6.07;;;18.80;99.90;;;;;;5039726;28;20696;-47
2022/06/08 13:21:21;;;;;;;10.43;6.65;;;20.90;99.90;;;;;;5050969;28;21085;-50
2022/06/08 13:23:48;;;;;;;9.18;7.40;;;18.30;99.90;;;;;;5049693;28;20432;-50
2022/06/08 13:26:27;;;;;;;12.57;7.70;;;18.40;99.90;;;;;;5033742;28;20033;-50